Impacts METAR Board
IDs:

KPHL - Philadelphia Intl, PA, US

Updated at: 2200 UTC 21 May 2022
Potential Impact None Slight Moderate High
Time 21/10Z 21/11Z 21/12Z 21/13Z 21/14Z 21/15Z 21/16Z 21/17Z 21/18Z 21/19Z 21/20Z 21/21Z 21/22Z
Temp67 68 69 72 78 82 89 92 93 93 95 95 93
Dewpt66 66 68 68 69 71 68 65 66 68 67 65 66
Altim29.98 30.00 30.03 30.03 30.04 30.03 30.04 30.03 30.02 30.02 30.01 30.00 30.00
VIS0.5 0.25 1.25 3 5 8 10 10 10 10 10 10 10
CIG250 1 2 -- -- -- -- -- 250 250 250 250 --
CoverBKNOVXOVCSCTFEWFEWSCTSCTBKNBKNBKNBKNSCT
FltCatLIFRLIFRLIFRMVFRMVFRVFRVFRVFRVFRVFRVFRVFRVFR
WXFGFGBRBRHZ----------------
WDir100033000130200200240200240240250
WSpd3 0 4 0 0 6 7 6 6 8 13 12 10
WGst-- -- -- -- -- -- -- -- -- -- -- -- --
Raw hourly METARs
KPHL 211001Z 10003KT 1/2SM R09R/P6000FT FG SCT001 BKN250 19/19 A2998 RMK AO2 SCT V BKN T01940189 $
KPHL 211054Z 00000KT 1/4SM R09R/0600FT FG VV001 20/19 A3000 RMK AO2 SLP158 T02000189 $
KPHL 211203Z 33004KT 1 1/4SM R09R/4500VP6000FT BR OVC002 21/20 A3003 RMK AO2 T02060200 $
KPHL 211254Z 00000KT 3SM BR SCT003 SCT140 22/20 A3003 RMK AO2 SLP169 T02220200 $
KPHL 211354Z 00000KT 5SM HZ FEW250 26/21 A3004 RMK AO2 SLP170 T02560206 $
KPHL 211454Z 13006KT 8SM FEW250 28/22 A3003 RMK AO2 SLP170 T02780217 50003 $
KPHL 211554Z 20007KT 10SM SCT250 32/20 A3004 RMK AO2 SLP170 T03170200 $
KPHL 211654Z 20006KT 10SM SCT250 33/18 A3003 RMK AO2 SLP167 T03330183 $
KPHL 211754Z 24006KT 10SM FEW050 BKN250 34/19 A3002 RMK AO2 SLP166 T03390189 10339 20206 58003 $
KPHL 211854Z 20008KT 10SM FEW050 BKN250 34/20 A3002 RMK AO2 SLP163 T03390200 $
KPHL 211954Z 24013KT 10SM FEW050 BKN250 35/19 A3001 RMK AO2 SLP162 T03500194 $
KPHL 212054Z 24012KT 10SM FEW055 BKN250 35/18 A3000 RMK AO2 SLP159 T03500183 57007 $
KPHL 212154Z 25010KT 10SM FEW050 SCT250 34/19 A3000 RMK AO2 SLP159 T03390189 $



Page loaded:  22:16 UTC  |   03:16 PM Pacific  |   04:16 PM Mountain  |   05:16 PM Central  |   06:16 PM Eastern

 

ADVISORIES

FORECASTS

FORECASTS

OBSERVATIONS

USER TOOLS

ABOUT US